Aérodrome :
LOGIN :

S'inscrire | Disclaimer

   EN    FR    IT 

 










Légende :    VFR   VFR Marginal   IFR   IFR Intensif   IFR Très Intensif
Visi : 
Plafond : 
>= 8 km
>= 3000ft
5 à 8 km
1000 à 3000 ft
1500m à 5 km
500 à 1000 ft
800 à 1500m
200 à 500 ft
< 800m
< 200 ft
Symboles :   Orages  Brouillard  Fortes neiges  Fortes précipitations  Vent > 20 kt
SIGMETs :   Divers  Orages  Givrage  Turbulence  Onde Orograph.  Cendres Volcan.







- Altitude de l'aérodrome : 309 ft
- Code IATA : FNI
- Voir les cartes d'approche


LFTW - Nîmes Garons

DERNIER METAR :
  • 181900Z AUTO 15005KT 9999 OVC044 10/06 Q1023 NOSIG

METARs EXPIRÉS :
  • 181830Z AUTO 15005KT 120V180 9999 OVC044 11/06 Q1023 NOSIG
  • 181800Z AUTO 15006KT 120V180 9999 OVC044 11/06 Q1023 NOSIG
  • 181730Z AUTO 15005KT 9999 BKN045 11/06 Q1023 NOSIG
  • 181700Z AUTO 14006KT 9999 OVC046 11/06 Q1022 NOSIG
  • 181630Z AUTO 17008KT 9999 FEW041 OVC047 12/06 Q1023 NOSIG

TAF TAF LFTW
Valide du 18 à 15h jusqu'au 19 à 15h UTC


181400Z 1815/1915 17010KT 9999 SCT030 OVC045
BECMG 1817/1819 VRB05KT
BECMG 1907/1910 SCT045
Pas de NOTAMs connus pour ce terrain.



MET'MAP, la Météo Aéronautique d'un coup d'oeil ! - Copyright ORBIFLY Décembre 2007 - Disclaimer

ORBIFLY MET'MAP TEAM :

Programmation & Développement : Alexandra Zaïnal
Conception & Développement : Baudouin d'Aumeries
Co-Programmation & Développement : Marc-Olivier Méhu
Soutien technique & logistique : Manuel Goepfert

Contact : metmap@orbifly.com




SOURCES & CREDITS :

   NOAA